Time;durP1;ratioP1;P1;durP2;ratioP2;P2;SDS_P1;SDS_P2;PMS_P1;PMS_P2;Temp;Humidity;BMP_temperature;BMP_pressure;BME280_temperature;BME280_humidity;BME280_pressure;Samples;Min_cycle;Max_cycle;Signal;HPM_P1;HPM_P2
2022/06/26 00:01:59;;;;;;;3.92;2.58;;;17.30;99.90;;;;;;5103296;27;20045;-92
2022/06/26 00:04:24;;;;;;;0.98;0.45;;;17.20;99.90;;;;;;5103271;28;20125;-92
2022/06/26 00:06:50;;;;;;;4.32;1.10;;;16.40;99.90;;;;;;5120238;28;20083;-92
2022/06/26 00:09:18;;;;;;;1.15;1.05;;;16.50;99.90;;;;;;5103851;27;20023;-92
2022/06/26 00:11:44;;;;;;;2.75;2.10;;;17.30;99.90;;;;;;5103477;27;20101;-92
2022/06/26 00:14:09;;;;;;;2.22;1.80;;;16.40;99.90;;;;;;5120277;27;20030;-91
2022/06/26 00:16:35;;;;;;;4.30;2.58;;;17.80;99.90;;;;;;5102962;27;20042;-92
2022/06/26 00:19:01;;;;;;;1.95;1.27;;;16.40;99.90;;;;;;5120134;27;20020;-92
2022/06/26 00:21:26;;;;;;;1.75;1.23;;;16.50;99.90;;;;;;5103085;27;20035;-92
2022/06/26 00:23:52;;;;;;;0.80;0.75;;;16.50;99.90;;;;;;5119961;27;20044;-92
2022/06/26 00:26:18;;;;;;;0.63;0.57;;;16.60;99.90;;;;;;5119756;27;20087;-92
2022/06/26 00:28:43;;;;;;;0.73;0.68;;;16.50;99.90;;;;;;5095384;28;20028;-92
2022/06/26 00:31:09;;;;;;;1.50;1.05;;;16.40;99.90;;;;;;5104011;27;20051;-92
2022/06/26 00:33:34;;;;;;;1.30;0.93;;;16.40;99.90;;;;;;5120132;27;20035;-92
2022/06/26 00:36:00;;;;;;;2.13;1.77;;;17.60;99.90;;;;;;5102976;27;20038;-92
2022/06/26 00:38:25;;;;;;;1.35;0.75;;;16.30;99.90;;;;;;5120007;27;20025;-92
2022/06/26 00:40:51;;;;;;;1.40;0.98;;;16.30;99.90;;;;;;5103012;27;20032;-91
2022/06/26 00:43:17;;;;;;;2.90;2.00;;;16.30;99.90;;;;;;5119953;28;20023;-92
2022/06/26 00:45:42;;;;;;;2.78;2.08;;;16.20;99.90;;;;;;5102690;28;20031;-92
2022/06/26 00:48:08;;;;;;;1.35;0.88;;;16.20;99.90;;;;;;5102775;27;20031;-91
2022/06/26 00:50:35;;;;;;;1.38;1.27;;;16.10;99.90;;;;;;5102782;27;20036;-92
2022/06/26 00:53:01;;;;;;;0.75;0.57;;;16.00;99.90;;;;;;5120844;27;20035;-92
2022/06/26 00:55:27;;;;;;;2.67;1.35;;;16.00;99.90;;;;;;5123674;27;20050;-93
2022/06/26 00:57:53;;;;;;;3.38;1.88;;;16.00;99.90;;;;;;5106677;28;20028;-92
2022/06/26 01:00:20;;;;;;;2.28;1.42;;;15.90;99.90;;;;;;5106513;27;20020;-92
2022/06/26 01:02:46;;;;;;;5.45;1.73;;;17.00;99.90;;;;;;5106413;27;20039;-92
2022/06/26 01:05:12;;;;;;;1.63;0.95;;;15.90;99.90;;;;;;5105796;27;20047;-92
2022/06/26 01:07:39;;;;;;;1.42;1.15;;;15.80;99.90;;;;;;5106289;27;20032;-92
2022/06/26 01:10:05;;;;;;;1.40;1.13;;;15.90;99.90;;;;;;5106594;27;20044;-92
2022/06/26 01:12:31;;;;;;;0.73;0.68;;;15.90;99.90;;;;;;5123265;27;20031;-92
2022/06/26 01:14:58;;;;;;;2.35;1.27;;;16.60;99.90;;;;;;5106125;27;20091;-92
2022/06/26 01:17:24;;;;;;;2.17;1.08;;;16.10;99.90;;;;;;5123128;28;20035;-92
2022/06/26 01:19:50;;;;;;;2.60;1.02;;;16.70;99.90;;;;;;5106244;28;20110;-91
2022/06/26 01:22:15;;;;;;;0.95;0.68;;;15.60;99.90;;;;;;5123331;27;20084;-91
2022/06/26 01:24:41;;;;;;;1.70;1.48;;;16.20;99.90;;;;;;5123265;27;20027;-91
2022/06/26 01:27:07;;;;;;;5.13;2.03;;;16.40;99.90;;;;;;5105831;27;20048;-91
2022/06/26 01:29:32;;;;;;;3.55;1.90;;;17.60;99.90;;;;;;5123333;27;20024;-91
2022/06/26 01:31:58;;;;;;;1.55;1.23;;;17.50;99.90;;;;;;5105977;28;20039;-91
2022/06/26 01:34:24;;;;;;;3.28;2.33;;;17.40;99.90;;;;;;5105807;27;20087;-91
2022/06/26 01:36:50;;;;;;;1.10;1.05;;;16.80;99.90;;;;;;5106154;27;20034;-91
2022/06/26 01:39:19;;;;;;;1.55;1.33;;;17.90;99.90;;;;;;5106184;27;20032;-90
2022/06/26 01:41:47;;;;;;;0.80;0.63;;;18.00;99.90;;;;;;5122918;27;20030;-91
2022/06/26 01:44:16;;;;;;;1.98;1.00;;;17.50;99.90;;;;;;5105877;27;20035;-91
2022/06/26 01:46:42;;;;;;;0.90;0.80;;;17.00;99.90;;;;;;5122370;27;20031;-91
2022/06/26 01:49:09;;;;;;;1.10;0.88;;;17.00;99.90;;;;;;5105661;27;20023;-91
2022/06/26 01:51:35;;;;;;;1.45;0.73;;;18.20;99.90;;;;;;5105872;27;20046;-90
2022/06/26 01:54:01;;;;;;;1.95;1.63;;;17.00;99.90;;;;;;5105699;27;20034;-91
2022/06/26 01:56:29;;;;;;;1.48;0.65;;;17.00;99.90;;;;;;5140774;27;20035;-91
2022/06/26 01:59:04;;;;;;;1.55;1.17;;;16.30;99.90;;;;;;5122290;27;20095;-91
2022/06/26 02:01:31;;;;;;;1.17;0.65;;;17.00;99.90;;;;;;5140536;27;20023;-91
2022/06/26 02:03:57;;;;;;;1.05;0.63;;;16.30;99.90;;;;;;5088510;28;20044;-91
2022/06/26 02:06:23;;;;;;;1.17;0.47;;;17.30;99.90;;;;;;5105167;27;20054;-92
2022/06/26 02:08:48;;;;;;;1.58;0.90;;;17.10;99.90;;;;;;5105756;28;20035;-92
2022/06/26 02:13:58;;;;;;;2.17;0.85;;;18.20;99.90;;;;;;5122735;28;20030;-91
2022/06/26 02:16:28;;;;;;;1.30;0.60;;;17.80;99.90;;;;;;5122202;27;20027;-91
2022/06/26 02:18:56;;;;;;;1.13;0.85;;;18.10;99.90;;;;;;5122369;27;20097;-91
2022/06/26 02:21:24;;;;;;;1.83;1.17;;;17.20;99.90;;;;;;5122370;27;20287;-91
2022/06/26 02:23:51;;;;;;;0.85;0.75;;;17.20;99.90;;;;;;5105428;27;20108;-91
2022/06/26 02:26:18;;;;;;;2.92;1.58;;;17.00;99.90;;;;;;5121562;27;20043;-92
2022/06/26 02:28:45;;;;;;;0.85;0.82;;;18.50;99.90;;;;;;5105169;28;20027;-91
2022/06/26 02:31:11;;;;;;;0.70;0.60;;;17.40;99.90;;;;;;5105074;27;20046;-91
2022/06/26 02:33:36;;;;;;;0.65;0.57;;;17.20;99.90;;;;;;5121996;28;20028;-90
2022/06/26 02:36:04;;;;;;;1.55;0.88;;;17.10;99.90;;;;;;5120373;28;20023;-90
2022/06/26 02:38:29;;;;;;;0.77;0.60;;;17.00;99.90;;;;;;5104974;28;20019;-89
2022/06/26 02:40:55;;;;;;;2.60;1.90;;;17.00;99.90;;;;;;5102812;28;20114;-91
2022/06/26 02:43:24;;;;;;;1.27;0.98;;;16.90;99.90;;;;;;5120882;28;20016;-90
2022/06/26 02:45:51;;;;;;;1.08;0.75;;;16.90;99.90;;;;;;5119723;28;20031;-90
2022/06/26 02:48:17;;;;;;;0.85;0.82;;;17.40;99.90;;;;;;5138589;27;20062;-90
2022/06/26 02:50:42;;;;;;;1.52;0.63;;;16.80;99.90;;;;;;5121756;27;20031;-90
2022/06/26 02:53:09;;;;;;;2.47;0.98;;;16.70;99.90;;;;;;5121948;28;20062;-90
2022/06/26 02:55:35;;;;;;;1.23;0.95;;;16.80;99.90;;;;;;5139403;27;20059;-90
2022/06/26 02:58:02;;;;;;;3.80;1.20;;;17.40;99.90;;;;;;5139354;27;20031;-91
2022/06/26 03:00:28;;;;;;;3.58;1.52;;;16.90;99.90;;;;;;5121428;27;20039;-91
2022/06/26 03:02:53;;;;;;;0.82;0.50;;;17.80;99.90;;;;;;5121559;27;20050;-91
2022/06/26 03:05:19;;;;;;;1.27;0.93;;;16.50;99.90;;;;;;5104473;27;20019;-91
2022/06/26 03:07:44;;;;;;;0.25;0.25;;;16.50;99.90;;;;;;5139228;27;20027;-91
2022/06/26 03:10:10;;;;;;;0.63;0.55;;;16.40;99.90;;;;;;5121512;27;20028;-92
2022/06/26 03:12:49;;;;;;;0.98;0.70;;;17.40;99.90;;;;;;5121505;27;20020;-92
2022/06/26 03:15:16;;;;;;;0.43;0.40;;;17.10;99.90;;;;;;5138364;27;20027;-92
2022/06/26 03:17:42;;;;;;;0.68;0.60;;;17.10;99.90;;;;;;5121257;28;20023;-92
2022/06/26 03:20:17;;;;;;;0.80;0.75;;;16.50;99.90;;;;;;5104078;27;20114;-92
2022/06/26 03:22:43;;;;;;;0.00;0.00;;;16.30;99.90;;;;;;5121049;27;20073;-92
2022/06/26 03:25:09;;;;;;;0.20;0.20;;;17.00;99.90;;;;;;5104159;28;20031;-92
2022/06/26 03:27:36;;;;;;;0.68;0.43;;;17.00;99.90;;;;;;5138335;27;20035;-91
2022/06/26 03:30:03;;;;;;;1.50;0.70;;;16.80;99.90;;;;;;5121189;27;20047;-92
2022/06/26 03:32:28;;;;;;;2.58;0.80;;;17.30;99.90;;;;;;5121108;27;20054;-92
2022/06/26 03:34:54;;;;;;;0.70;0.70;;;17.40;99.90;;;;;;5120719;27;20024;-92
2022/06/26 03:37:20;;;;;;;1.40;0.68;;;16.20;99.90;;;;;;5138324;27;20019;-92
2022/06/26 03:39:45;;;;;;;1.08;0.88;;;16.20;99.90;;;;;;5120665;27;20020;-92
2022/06/26 03:42:11;;;;;;;0.00;0.00;;;16.40;99.90;;;;;;5103716;27;21158;-92
2022/06/26 03:44:37;;;;;;;0.28;0.20;;;16.60;99.90;;;;;;5103877;27;20023;-91
2022/06/26 03:47:02;;;;;;;0.10;0.10;;;16.20;99.90;;;;;;5103399;28;20099;-92
2022/06/26 03:49:29;;;;;;;1.35;0.50;;;16.20;99.90;;;;;;5120616;27;20030;-92
2022/06/26 03:51:55;;;;;;;0.60;0.60;;;16.10;99.90;;;;;;5103402;27;20022;-92
2022/06/26 03:54:21;;;;;;;2.05;1.02;;;16.10;99.90;;;;;;5103235;27;20042;-92
2022/06/26 03:56:47;;;;;;;0.47;0.47;;;16.10;99.90;;;;;;5103647;27;20027;-92
2022/06/26 03:59:12;;;;;;;0.10;0.10;;;16.10;99.90;;;;;;5103326;28;20032;-92
2022/06/26 04:01:38;;;;;;;1.20;0.85;;;16.90;99.90;;;;;;5119680;27;20081;-92
2022/06/26 04:04:04;;;;;;;0.15;0.05;;;17.20;99.90;;;;;;5102959;27;20051;-91
2022/06/26 04:06:30;;;;;;;0.17;0.17;;;16.10;99.90;;;;;;5120102;27;20091;-92
2022/06/26 04:08:55;;;;;;;2.50;1.10;;;16.10;99.90;;;;;;5137785;27;20028;-91
2022/06/26 04:11:21;;;;;;;0.10;0.10;;;16.10;99.90;;;;;;5103295;27;20019;-92
2022/06/26 04:13:49;;;;;;;1.70;1.23;;;16.10;99.90;;;;;;5103142;27;20051;-92
2022/06/26 04:16:15;;;;;;;0.17;0.17;;;16.30;99.90;;;;;;5137680;27;20035;-92
2022/06/26 04:18:41;;;;;;;1.38;0.47;;;16.40;99.90;;;;;;5103121;27;20032;-92
2022/06/26 04:21:07;;;;;;;0.47;0.47;;;16.00;99.90;;;;;;5119978;27;20023;-92
2022/06/26 04:23:32;;;;;;;0.20;0.20;;;15.90;99.90;;;;;;5103282;27;20032;-92
2022/06/26 04:25:58;;;;;;;1.08;0.47;;;15.90;99.90;;;;;;5120063;27;20035;-92
2022/06/26 04:28:23;;;;;;;0.68;0.43;;;16.30;99.90;;;;;;5121818;27;20048;-92
2022/06/26 04:30:49;;;;;;;2.60;1.27;;;15.90;99.90;;;;;;5107413;27;20095;-92
2022/06/26 04:33:15;;;;;;;0.17;0.15;;;15.90;99.90;;;;;;5142043;27;20028;-92
2022/06/26 04:35:40;;;;;;;0.00;0.00;;;16.60;99.90;;;;;;5107012;27;20039;-92
2022/06/26 04:38:06;;;;;;;1.38;0.90;;;16.10;99.90;;;;;;5107369;27;20061;-92
2022/06/26 04:40:32;;;;;;;0.38;0.38;;;16.20;99.90;;;;;;5124172;27;20028;-92
2022/06/26 04:42:57;;;;;;;0.73;0.35;;;16.20;99.90;;;;;;5141942;27;20024;-92
2022/06/26 04:45:23;;;;;;;0.10;0.10;;;17.00;99.90;;;;;;5106527;27;20069;-92
2022/06/26 04:47:49;;;;;;;0.05;0.05;;;16.60;99.90;;;;;;5141115;27;20093;-91
2022/06/26 04:50:18;;;;;;;0.10;0.03;;;16.70;99.90;;;;;;5106851;27;20071;-92
2022/06/26 04:52:45;;;;;;;0.10;0.10;;;16.10;99.90;;;;;;5141765;27;20155;-92
2022/06/26 04:55:11;;;;;;;0.00;0.00;;;17.20;99.90;;;;;;5123879;27;20027;-92
2022/06/26 04:57:36;;;;;;;4.85;0.57;;;16.00;99.90;;;;;;5107054;27;20020;-91
2022/06/26 05:00:05;;;;;;;0.28;0.28;;;15.90;99.90;;;;;;5141610;27;20030;-91
2022/06/26 05:02:31;;;;;;;0.45;0.30;;;16.00;99.90;;;;;;5124410;27;20035;-91
2022/06/26 05:04:56;;;;;;;0.60;0.47;;;16.80;99.90;;;;;;5124527;27;20019;-92
2022/06/26 05:07:22;;;;;;;0.20;0.13;;;16.00;99.90;;;;;;5123732;28;20038;-92
2022/06/26 05:09:48;;;;;;;0.38;0.28;;;15.70;99.90;;;;;;5106737;27;20016;-92
2022/06/26 05:12:13;;;;;;;0.10;0.10;;;16.10;99.90;;;;;;5106451;28;20046;-92
2022/06/26 05:14:39;;;;;;;0.00;0.00;;;17.20;99.90;;;;;;5106243;27;20036;-92
2022/06/26 05:17:05;;;;;;;0.05;0.05;;;16.70;99.90;;;;;;5122959;27;20023;-92
2022/06/26 05:19:30;;;;;;;0.20;0.20;;;16.40;99.90;;;;;;5123216;27;20055;-92
2022/06/26 05:21:56;;;;;;;0.08;0.05;;;16.50;99.90;;;;;;5140794;27;20019;-92
2022/06/26 05:24:22;;;;;;;0.08;0.08;;;18.00;99.90;;;;;;5106323;28;20057;-92
2022/06/26 05:26:48;;;;;;;0.10;0.10;;;17.70;99.90;;;;;;5105808;27;20056;-92
2022/06/26 05:29:14;;;;;;;0.30;0.30;;;17.10;99.90;;;;;;5105798;27;20023;-93
2022/06/26 05:31:39;;;;;;;0.30;0.20;;;17.30;99.90;;;;;;5123039;27;20026;-93
2022/06/26 05:34:05;;;;;;;0.00;0.00;;;17.30;99.90;;;;;;5106084;27;20024;-92
2022/06/26 05:36:31;;;;;;;0.28;0.17;;;17.50;99.90;;;;;;5122803;27;20031;-92
2022/06/26 05:38:56;;;;;;;0.00;0.00;;;17.30;99.90;;;;;;5105230;28;20028;-92
2022/06/26 05:41:22;;;;;;;1.27;0.43;;;18.10;99.90;;;;;;5122264;27;20103;-92
2022/06/26 05:43:47;;;;;;;0.10;0.10;;;17.20;99.90;;;;;;5120796;28;20113;-92
2022/06/26 05:46:13;;;;;;;3.97;0.63;;;18.00;99.90;;;;;;5121093;27;20067;-91
2022/06/26 05:48:38;;;;;;;0.05;0.05;;;17.20;99.90;;;;;;5103663;28;20100;-92
2022/06/26 05:51:04;;;;;;;0.88;0.52;;;17.20;99.90;;;;;;5119882;27;20034;-92
2022/06/26 05:53:30;;;;;;;0.10;0.10;;;17.70;99.90;;;;;;5103774;28;20091;-93
2022/06/26 05:55:55;;;;;;;0.47;0.40;;;17.20;99.90;;;;;;5120416;28;20027;-92
2022/06/26 05:58:21;;;;;;;0.93;0.40;;;18.30;99.90;;;;;;5120319;28;20031;-92
2022/06/26 06:00:46;;;;;;;0.03;0.03;;;17.50;99.90;;;;;;5119826;28;20023;-92
2022/06/26 06:03:12;;;;;;;0.08;0.08;;;17.40;99.90;;;;;;5120316;28;20041;-92
2022/06/26 06:05:38;;;;;;;0.63;0.52;;;18.40;99.90;;;;;;5137813;27;20048;-93
2022/06/26 06:08:04;;;;;;;0.20;0.20;;;17.60;99.90;;;;;;5119880;28;20028;-92
2022/06/26 06:10:30;;;;;;;0.13;0.13;;;17.70;99.90;;;;;;5104132;28;20035;-92
2022/06/26 06:12:55;;;;;;;0.40;0.40;;;17.80;99.90;;;;;;5119692;28;20027;-91
2022/06/26 06:15:22;;;;;;;0.65;0.63;;;17.90;99.90;;;;;;5120575;28;20034;-92
2022/06/26 06:17:48;;;;;;;0.55;0.40;;;18.90;99.90;;;;;;5120860;28;20016;-92
2022/06/26 06:20:15;;;;;;;1.10;0.65;;;18.00;99.90;;;;;;5101029;28;20271;-91
2022/06/26 06:22:43;;;;;;;0.45;0.30;;;18.20;99.90;;;;;;5135134;28;20030;-89
2022/06/26 06:25:09;;;;;;;2.42;0.88;;;18.20;99.90;;;;;;5138387;27;20023;-89
2022/06/26 06:27:35;;;;;;;1.65;0.68;;;18.30;99.90;;;;;;5120120;28;20059;-91
2022/06/26 06:30:03;;;;;;;0.95;0.73;;;18.50;99.90;;;;;;5119184;28;20134;-89
2022/06/26 06:32:28;;;;;;;1.50;1.23;;;18.70;99.90;;;;;;5119634;28;20028;-90
2022/06/26 06:34:54;;;;;;;1.70;1.00;;;19.00;99.90;;;;;;5134467;28;20071;-89
2022/06/26 06:37:19;;;;;;;1.63;1.13;;;19.80;99.90;;;;;;5104166;28;20022;-88
2022/06/26 06:39:46;;;;;;;0.98;0.90;;;19.50;99.90;;;;;;5138204;27;20031;-90
2022/06/26 06:42:12;;;;;;;1.35;0.75;;;19.40;99.90;;;;;;5104274;27;20035;-90
2022/06/26 06:44:37;;;;;;;1.83;1.10;;;19.30;99.90;;;;;;5119594;28;20119;-88
2022/06/26 06:47:04;;;;;;;1.40;0.85;;;19.40;99.90;;;;;;5139003;27;20047;-90
2022/06/26 06:49:30;;;;;;;1.05;0.95;;;19.40;99.90;;;;;;5097195;28;20308;-92
2022/06/26 06:51:56;;;;;;;1.38;1.27;;;19.90;99.90;;;;;;5095296;28;20051;-92
2022/06/26 06:54:22;;;;;;;1.17;0.88;;;19.60;99.90;;;;;;5112582;28;20044;-89
2022/06/26 06:56:48;;;;;;;0.82;0.82;;;20.00;99.90;;;;;;5134455;27;20042;-89
2022/06/26 06:59:13;;;;;;;0.90;0.65;;;19.60;99.90;;;;;;5134397;28;20040;-90
2022/06/26 07:01:39;;;;;;;1.73;1.38;;;19.50;99.90;;;;;;5136284;28;20089;-90
2022/06/26 07:04:06;;;;;;;0.50;0.50;;;19.40;99.90;;;;;;5135042;28;20141;-88
2022/06/26 07:06:32;;;;;;;1.98;1.40;;;19.10;99.90;;;;;;5090351;28;20054;-88
2022/06/26 07:08:57;;;;;;;1.67;1.23;;;19.00;99.90;;;;;;5088442;28;20099;-88
2022/06/26 07:11:23;;;;;;;0.80;0.80;;;19.00;99.90;;;;;;5126285;28;20443;-88
2022/06/26 07:13:49;;;;;;;8.25;1.42;;;19.10;99.90;;;;;;5130035;28;20080;-88
2022/06/26 07:16:14;;;;;;;3.50;1.25;;;19.30;99.90;;;;;;5127461;28;20099;-87
2022/06/26 07:18:40;;;;;;;1.08;0.98;;;19.50;99.90;;;;;;5130095;28;20047;-91
2022/06/26 07:21:08;;;;;;;1.40;1.23;;;19.70;99.90;;;;;;5134106;27;20043;-92
2022/06/26 07:23:34;;;;;;;2.08;1.13;;;19.70;99.90;;;;;;5102393;28;20023;-91
2022/06/26 07:26:00;;;;;;;0.70;0.65;;;20.20;99.90;;;;;;5125606;28;20035;-91
2022/06/26 07:28:26;;;;;;;3.53;1.48;;;21.00;99.90;;;;;;5088139;28;20073;-89
2022/06/26 07:30:53;;;;;;;6.60;2.65;;;20.10;99.90;;;;;;5133515;28;20043;-91
2022/06/26 07:36:03;;;;;;;1.90;1.45;;;21.70;99.90;;;;;;5110817;28;20048;-90
2022/06/26 07:38:29;;;;;;;0.88;0.70;;;21.30;99.90;;;;;;5093311;28;20405;-91
2022/06/26 07:40:55;;;;;;;2.67;1.65;;;21.50;99.90;;;;;;5128421;28;20060;-92
2022/06/26 07:43:20;;;;;;;2.00;1.58;;;22.30;99.90;;;;;;5088574;28;20036;-91
2022/06/26 07:45:47;;;;;;;0.60;0.30;;;21.30;99.90;;;;;;5099378;28;20047;-90
2022/06/26 07:48:13;;;;;;;2.28;2.08;;;22.40;99.90;;;;;;5116573;28;20032;-91
2022/06/26 07:50:39;;;;;;;5.03;1.85;;;22.60;99.90;;;;;;5097979;28;20559;-90
2022/06/26 07:53:04;;;;;;;4.10;1.45;;;22.60;99.90;;;;;;5088458;28;20043;-91
2022/06/26 07:55:30;;;;;;;1.73;1.48;;;23.60;99.90;;;;;;5120733;28;20043;-91
2022/06/26 07:57:56;;;;;;;1.60;0.50;;;23.40;99.90;;;;;;5120795;28;20493;-91
2022/06/26 08:00:22;;;;;;;1.60;1.00;;;23.10;99.90;;;;;;5120372;28;20050;-91
2022/06/26 08:02:47;;;;;;;2.40;1.88;;;22.80;99.90;;;;;;5104342;28;20540;-91
2022/06/26 08:05:13;;;;;;;1.30;0.85;;;23.50;99.90;;;;;;5105086;28;20532;-90
2022/06/26 08:07:39;;;;;;;0.82;0.65;;;22.80;99.90;;;;;;5102504;28;20036;-91
2022/06/26 08:10:05;;;;;;;3.35;2.38;;;23.20;99.90;;;;;;5101738;28;20043;-91
2022/06/26 08:12:31;;;;;;;2.25;1.15;;;23.30;99.90;;;;;;5101173;28;20375;-90
2022/06/26 08:14:56;;;;;;;0.75;0.75;;;22.90;99.90;;;;;;5119889;28;20061;-91
2022/06/26 08:17:22;;;;;;;0.32;0.32;;;23.10;99.90;;;;;;5101878;28;20036;-90
2022/06/26 08:19:48;;;;;;;1.00;0.57;;;22.90;99.90;;;;;;5101036;28;20046;-91
2022/06/26 08:22:14;;;;;;;1.33;0.75;;;23.60;99.90;;;;;;5119922;28;20043;-91
2022/06/26 08:24:41;;;;;;;1.60;1.17;;;25.90;99.90;;;;;;5101700;28;20038;-91
2022/06/26 08:27:08;;;;;;;4.00;1.38;;;25.40;99.90;;;;;;5104619;28;20071;-90
2022/06/26 08:29:34;;;;;;;0.68;0.60;;;24.90;99.90;;;;;;5120622;28;20146;-90
2022/06/26 08:32:00;;;;;;;0.50;0.50;;;24.40;99.90;;;;;;5120290;28;20420;-90
2022/06/26 08:34:26;;;;;;;1.08;0.98;;;24.80;99.90;;;;;;5101865;28;20089;-89
2022/06/26 08:36:52;;;;;;;2.28;1.15;;;24.30;99.90;;;;;;5119349;28;20103;-90
2022/06/26 08:39:18;;;;;;;0.52;0.47;;;25.50;99.90;;;;;;5101504;28;20061;-90
2022/06/26 08:41:48;;;;;;;0.47;0.43;;;26.40;97.80;;;;;;5098801;28;20562;-91
2022/06/26 08:44:14;;;;;;;0.55;0.47;;;27.20;91.50;;;;;;5098156;28;20134;-90
2022/06/26 08:46:41;;;;;;;1.17;0.77;;;27.80;83.50;;;;;;5097752;28;20039;-90
2022/06/26 08:49:15;;;;;;;2.90;1.17;;;28.40;71.00;;;;;;5099065;28;20564;-89
2022/06/26 08:51:44;;;;;;;0.28;0.22;;;28.60;55.50;;;;;;5118992;28;20040;-90
2022/06/26 08:54:12;;;;;;;0.10;0.10;;;28.10;51.50;;;;;;5099939;28;20082;-89
2022/06/26 08:56:41;;;;;;;0.70;0.40;;;27.30;55.00;;;;;;5116960;28;20044;-89
2022/06/26 08:59:07;;;;;;;0.17;0.17;;;27.30;47.60;;;;;;5116946;28;20054;-89
2022/06/26 09:01:35;;;;;;;0.85;0.47;;;27.70;38.10;;;;;;5117646;28;20131;-89
2022/06/26 09:04:00;;;;;;;0.65;0.52;;;26.80;49.60;;;;;;5120501;28;20071;-89
2022/06/26 09:06:26;;;;;;;0.32;0.28;;;25.80;67.90;;;;;;5083465;28;20044;-89
2022/06/26 09:08:52;;;;;;;0.20;0.15;;;25.70;74.10;;;;;;5118483;28;20032;-89
2022/06/26 09:11:18;;;;;;;0.82;0.45;;;26.60;72.80;;;;;;5118909;28;20107;-88
2022/06/26 09:13:45;;;;;;;0.28;0.28;;;27.60;52.20;;;;;;5101586;28;20051;-89
2022/06/26 09:16:12;;;;;;;1.02;0.90;;;27.30;44.10;;;;;;5103072;28;20043;-89
2022/06/26 09:18:40;;;;;;;0.88;0.63;;;27.60;38.90;;;;;;5104244;28;20119;-89
2022/06/26 09:21:07;;;;;;;0.28;0.20;;;27.80;31.80;;;;;;5102758;28;20119;-90
2022/06/26 09:23:36;;;;;;;0.63;0.40;;;26.60;28.70;;;;;;5122240;28;20035;-90
2022/06/26 09:26:03;;;;;;;1.40;0.45;;;25.60;42.30;;;;;;5103898;28;20044;-89
2022/06/26 09:28:29;;;;;;;0.08;0.08;;;25.70;63.00;;;;;;5088471;28;20099;-89
2022/06/26 09:31:01;;;;;;;1.02;0.30;;;24.60;63.60;;;;;;5090219;28;20043;-88
2022/06/26 09:33:28;;;;;;;3.30;0.47;;;23.90;81.30;;;;;;5123424;28;20036;-89
2022/06/26 09:35:55;;;;;;;0.25;0.25;;;23.50;90.90;;;;;;5104348;28;20070;-88
2022/06/26 09:38:26;;;;;;;0.08;0.08;;;22.80;99.40;;;;;;5086610;28;20039;-89
2022/06/26 09:41:00;;;;;;;3.15;0.15;;;23.20;99.90;;;;;;5128805;28;20077;-89
2022/06/26 09:43:28;;;;;;;0.40;0.40;;;23.50;97.60;;;;;;5135058;28;20044;-89
2022/06/26 09:45:55;;;;;;;0.10;0.10;;;24.10;93.40;;;;;;5134677;28;20070;-89
2022/06/26 09:48:23;;;;;;;0.35;0.32;;;24.90;93.00;;;;;;5087022;28;20513;-88
2022/06/26 09:50:50;;;;;;;0.25;0.15;;;25.60;83.50;;;;;;5086181;28;20378;-89
2022/06/26 09:53:17;;;;;;;0.17;0.17;;;26.20;71.00;;;;;;5103293;28;20050;-89
2022/06/26 09:55:43;;;;;;;3.45;0.80;;;26.10;58.80;;;;;;5122094;28;20043;-89
2022/06/26 09:58:09;;;;;;;0.32;0.32;;;25.20;58.50;;;;;;5121496;28;20092;-89
2022/06/26 10:00:36;;;;;;;0.00;0.00;;;26.00;53.00;;;;;;5102055;28;20036;-89
2022/06/26 10:08:34;;;;;;;0.15;0.15;;;25.70;42.90;;;;;;5104350;28;20052;-89
2022/06/26 10:11:02;;;;;;;0.10;0.10;;;25.20;56.50;;;;;;5105069;28;20035;-89
2022/06/26 10:13:30;;;;;;;0.00;0.00;;;25.10;52.60;;;;;;5121764;28;20039;-88
2022/06/26 10:16:18;;;;;;;0.20;0.20;;;25.10;48.00;;;;;;5121417;28;20039;-88
2022/06/26 10:19:01;;;;;;;0.20;0.10;;;25.20;48.60;;;;;;5123435;28;20055;-89
2022/06/26 10:21:27;;;;;;;0.10;0.10;;;25.00;62.90;;;;;;5085108;28;20082;-89
2022/06/26 10:24:02;;;;;;;0.65;0.43;;;25.00;69.70;;;;;;5102718;28;20055;-89
2022/06/26 10:26:28;;;;;;;0.47;0.30;;;25.50;62.20;;;;;;5118306;28;20140;-88
2022/06/26 10:29:06;;;;;;;0.05;0.00;;;26.40;64.40;;;;;;5119369;28;20286;-88
2022/06/26 10:31:52;;;;;;;0.15;0.15;;;26.60;39.20;;;;;;5118859;28;20043;-88
2022/06/26 10:34:21;;;;;;;;;;;26.90;24.40;;;;;;5084658;28;20095;-89
2022/06/26 10:37:14;;;;;;;0.13;0.13;;;27.10;34.60;;;;;;5118222;28;19919;-89
2022/06/26 10:39:45;;;;;;;0.25;0.22;;;27.10;26.40;;;;;;5118776;28;20086;-88
2022/06/26 10:45:20;;;;;;;2.20;0.43;;;27.50;26.90;;;;;;5119498;28;20048;-89
2022/06/26 10:47:55;;;;;;;0.20;0.13;;;27.20;24.30;;;;;;5119563;28;20043;-89
2022/06/26 10:50:58;;;;;;;0.03;0.03;;;27.10;25.30;;;;;;5101606;28;20105;-89
2022/06/26 10:53:26;;;;;;;0.30;0.25;;;26.90;19.70;;;;;;5070364;28;20059;-89
2022/06/26 10:56:02;;;;;;;0.17;0.15;;;27.50;21.20;;;;;;5101904;28;20058;-89
2022/06/26 10:58:28;;;;;;;0.10;0.10;;;26.50;12.40;;;;;;5083738;28;20061;-89
2022/06/26 11:00:58;;;;;;;0.03;0.03;;;26.30;19.40;;;;;;5118120;28;20067;-89
2022/06/26 11:03:24;;;;;;;0.13;0.10;;;26.20;21.80;;;;;;5100906;28;20040;-89
2022/06/26 11:05:55;;;;;;;0.10;0.10;;;26.30;21.80;;;;;;5118422;28;20050;-89
2022/06/26 11:08:30;;;;;;;0.57;0.52;;;26.40;21.60;;;;;;5083143;28;20093;-89
2022/06/26 11:11:07;;;;;;;0.20;0.20;;;26.70;20.60;;;;;;5098961;28;20043;-89
2022/06/26 11:13:35;;;;;;;0.40;0.40;;;26.70;14.30;;;;;;5098371;28;20505;-89
2022/06/26 11:16:02;;;;;;;0.08;0.08;;;26.20;18.40;;;;;;5116413;28;20093;-89
2022/06/26 11:18:35;;;;;;;0.13;0.13;;;27.30;18.00;;;;;;5116864;28;20118;-89
2022/06/26 11:21:02;;;;;;;0.75;0.38;;;26.90;12.70;;;;;;5100139;28;20048;-88
2022/06/26 11:23:36;;;;;;;0.22;0.08;;;27.20;13.70;;;;;;5117787;28;20046;-88
2022/06/26 11:26:05;;;;;;;0.10;0.10;;;27.90;10.10;;;;;;5117738;28;20044;-89
2022/06/26 11:28:44;;;;;;;0.13;0.10;;;27.60;4.60;;;;;;5099989;28;20067;-89
2022/06/26 11:31:18;;;;;;;1.08;0.65;;;27.60;5.70;;;;;;5100239;28;20043;-89
2022/06/26 11:33:44;;;;;;;0.25;0.13;;;27.90;5.10;;;;;;5118310;28;20056;-89
2022/06/26 11:36:15;;;;;;;0.35;0.30;;;27.80;11.70;;;;;;5083289;28;20044;-88
2022/06/26 11:38:54;;;;;;;0.00;0.00;;;28.60;7.70;;;;;;5101180;28;20387;-89
2022/06/26 11:41:22;;;;;;;1.17;0.40;;;28.10;8.50;;;;;;5117100;28;20097;-89
2022/06/26 11:43:54;;;;;;;0.20;0.20;;;28.80;8.10;;;;;;5117320;28;20050;-88
2022/06/26 11:46:21;;;;;;;0.98;0.30;;;28.10;6.50;;;;;;5117541;28;20048;-89
2022/06/26 11:48:50;;;;;;;0.00;0.00;;;28.90;10.00;;;;;;5099891;28;20525;-89
2022/06/26 11:51:17;;;;;;;0.73;0.30;;;28.40;5.20;;;;;;5117873;28;20046;-90
2022/06/26 11:53:45;;;;;;;0.65;0.40;;;28.60;7.50;;;;;;5082368;28;20044;-89
2022/06/26 11:56:20;;;;;;;7.13;0.63;;;29.50;6.80;;;;;;5082444;28;20202;-89
2022/06/26 11:58:48;;;;;;;0.28;0.17;;;29.80;5.30;;;;;;5117344;28;20114;-89
2022/06/26 12:01:14;;;;;;;0.30;0.17;;;29.80;5.20;;;;;;5117996;28;20099;-89
2022/06/26 12:03:46;;;;;;;1.58;0.50;;;29.80;3.20;;;;;;5116893;28;20502;-89
2022/06/26 12:06:12;;;;;;;1.08;0.30;;;29.80;2.00;;;;;;5098147;28;20036;-88
2022/06/26 12:08:37;;;;;;;1.27;0.43;;;29.80;1.00;;;;;;5098179;28;20050;-88
2022/06/26 12:11:03;;;;;;;1.58;0.15;;;29.30;1.00;;;;;;5082184;28;20549;-89
2022/06/26 12:13:32;;;;;;;0.10;0.10;;;29.20;1.00;;;;;;5082031;28;20061;-88
2022/06/26 12:16:06;;;;;;;0.30;0.20;;;29.00;1.00;;;;;;5082354;28;20051;-88
2022/06/26 12:18:36;;;;;;;0.52;0.40;;;28.90;1.60;;;;;;5117578;28;20076;-89
2022/06/26 12:21:03;;;;;;;0.47;0.38;;;29.00;2.00;;;;;;5098508;28;20047;-89
2022/06/26 12:23:39;;;;;;;0.90;0.45;;;29.30;1.00;;;;;;5097984;28;20044;-89
2022/06/26 12:26:09;;;;;;;0.57;0.25;;;29.40;1.70;;;;;;5081342;28;20526;-89
2022/06/26 12:28:44;;;;;;;0.20;0.15;;;29.90;1.00;;;;;;5100302;28;20087;-89
2022/06/26 12:31:11;;;;;;;0.05;0.05;;;29.60;1.00;;;;;;5098301;28;20080;-88
2022/06/26 12:33:36;;;;;;;0.43;0.28;;;29.80;1.00;;;;;;5098137;28;20096;-89
2022/06/26 12:36:02;;;;;;;0.85;0.43;;;30.50;1.00;;;;;;5115905;28;20478;-88
2022/06/26 12:38:28;;;;;;;0.20;0.20;;;29.30;1.00;;;;;;5116149;28;20579;-90
2022/06/26 12:40:55;;;;;;;0.10;0.10;;;29.10;1.00;;;;;;5097118;28;20126;-88
2022/06/26 12:43:21;;;;;;;2.40;0.88;;;28.70;1.00;;;;;;5115887;28;20051;-89
2022/06/26 12:45:47;;;;;;;0.00;0.00;;;28.40;1.00;;;;;;5116382;28;20432;-89
2022/06/26 12:48:12;;;;;;;2.05;0.65;;;28.50;1.00;;;;;;5097939;28;20093;-89
2022/06/26 12:50:39;;;;;;;1.65;0.45;;;28.20;1.00;;;;;;5084238;28;20122;-89
2022/06/26 12:53:04;;;;;;;0.00;0.00;;;28.40;1.50;;;;;;5120671;28;20447;-89
2022/06/26 12:55:32;;;;;;;0.20;0.20;;;28.70;1.00;;;;;;5121447;28;20039;-88
2022/06/26 12:57:58;;;;;;;0.22;0.15;;;28.30;1.00;;;;;;5121280;28;20044;-88
2022/06/26 13:00:23;;;;;;;1.52;0.17;;;27.80;1.00;;;;;;5101800;28;20108;-88
2022/06/26 13:02:49;;;;;;;0.00;0.00;;;27.60;1.00;;;;;;5120786;28;20043;-88